Columbia Metropolitan Airport
KCAE : now visible

Airfield :











YOU CAN JOIN US ON...

 
LOGIN :

Register | Disclaimer

   EN    FR    IT 

 









Legend :    VFR   Marginal VFR   IFR   Intensive IFR   Very Intensive IFR
Visi :
Ceiling :
>= 8 km
>= 3000ft
5 to 8 km
1000 to 3000 ft
1500m to 5 km
500 to 1000 ft
800 to 1500m
200 to 500 ft
< 800m
< 200 ft
Symbols :   Thunderstorms  Fog  Heavy snow  Heavy precipitations  Wind > 20 kt






- Airport Elevation : 236 ft
- IATA code : CAE


KCAE - Columbia Metropolitan

CURRENT METAR :
  • 101256Z 29009KT 10SM FEW100 SCT150 BKN250 15/01 A2982 RMK AO2 SLP097 T01500011

EXPIRED METARs :
  • 101156Z 28006KT 10SM FEW100 BKN150 BKN250 14/02 A2980 RMK AO2 SLP088 T01440022 10194 20133 53039
  • 101056Z 26007KT 10SM CLR 13/02 A2973 RMK AO2 SLP066 T01330022
  • 100956Z 27009KT 10SM FEW150 16/02 A2970 RMK AO2 SLP053 T01560017

TAF KCAE
Valid from the 10 at 12:00 until the 11 at 12:00 UTC


101135Z 1012/1112 28010KT P6SM BKN150
FM101400 32015G25KT P6SM SCT250
FM110000 36004KT P6SM SKC



MET'MAP, your aeronautical weather chart ! - Copyright ORBIFLY December 2007 - Disclaimer

ORBIFLY MET'MAP TEAM :

Programming & Development : Alexandra Zaïnal
Concept & original design : Baudouin d'Aumeries
Assistance for programming : Marc-Olivier Méhu
Technical & hardware support : Manuel Goepfert

Contact : metmap@orbifly.com




SOURCES & CREDITS :

   NOAA       Earth
Advisory